4XHPO LLKX-LLRS
Flight info
| Callsign | 4XHPO |
|---|---|
| Flight time | N/A |
| Altitude | 400 |
| Route | LLRS |
| Aircraft | SVNH/L-V/N |
Departure
| Time | N/A |
|---|---|
| Airport | LLKX |
Arrival
| Time | 2026-04-28 15:53 |
|---|---|
| Airport | Rishon Lezion Airfield (LLRS) |
| Time | Latitude | Longitude | Altitude | Speed | Heading |
|---|---|---|---|---|---|
| 2026-04-28 15:53 | 31.82040 | 34.80061 | 161 ft | 0 kts | 38° |
| 2026-04-28 15:54 | 31.82041 | 34.80061 | 161 ft | 0 kts | 33° |
| 2026-04-28 15:54 | 31.82141 | 34.80176 | 180 ft | 44 kts | 40° |
| 2026-04-28 15:54 | 31.82461 | 34.80450 | 261 ft | 66 kts | 18° |
| 2026-04-28 15:55 | 31.82882 | 34.80277 | 371 ft | 71 kts | 297° |
| 2026-04-28 15:55 | 31.83105 | 34.79717 | 477 ft | 83 kts | 291° |
| 2026-04-28 15:55 | 31.83329 | 34.79072 | 626 ft | 88 kts | 289° |
| 2026-04-28 15:55 | 31.83750 | 34.78546 | 705 ft | 94 kts | 345° |
| 2026-04-28 15:56 | 31.84275 | 34.78873 | 763 ft | 89 kts | 43° |
| 2026-04-28 15:56 | 31.84721 | 34.79377 | 809 ft | 89 kts | 43° |
| 2026-04-28 15:56 | 31.85181 | 34.79885 | 813 ft | 92 kts | 43° |
| 2026-04-28 15:56 | 31.85654 | 34.80398 | 835 ft | 92 kts | 42° |
| 2026-04-28 15:57 | 31.86129 | 34.80910 | 836 ft | 94 kts | 42° |
| 2026-04-28 15:57 | 31.86614 | 34.81429 | 845 ft | 95 kts | 43° |
| 2026-04-28 15:57 | 31.87092 | 34.81962 | 845 ft | 95 kts | 40° |
| 2026-04-28 15:57 | 31.87649 | 34.82368 | 856 ft | 94 kts | 22° |
| 2026-04-28 15:58 | 31.88287 | 34.82541 | 842 ft | 95 kts | 3° |
| 2026-04-28 15:58 | 31.88940 | 34.82474 | 843 ft | 94 kts | 349° |
| 2026-04-28 15:58 | 31.89576 | 34.82319 | 857 ft | 93 kts | 345° |
| 2026-04-28 15:58 | 31.90188 | 34.82086 | 858 ft | 93 kts | 335° |
| 2026-04-28 15:59 | 31.90775 | 34.81779 | 875 ft | 92 kts | 334° |
| 2026-04-28 15:59 | 31.91358 | 34.81473 | 884 ft | 92 kts | 334° |
| 2026-04-28 15:59 | 31.91980 | 34.81360 | 877 ft | 94 kts | 5° |
| 2026-04-28 15:59 | 31.92638 | 34.81429 | 850 ft | 94 kts | 2° |
| 2026-04-28 16:00 | 31.93283 | 34.81421 | 718 ft | 91 kts | 351° |
| 2026-04-28 16:00 | 31.93806 | 34.81073 | 573 ft | 91 kts | 310° |
| 2026-04-28 16:00 | 31.94194 | 34.80446 | 550 ft | 95 kts | 298° |
| 2026-04-28 16:00 | 31.94412 | 34.79722 | 548 ft | 94 kts | 281° |
| 2026-04-28 16:01 | 31.94613 | 34.78938 | 555 ft | 106 kts | 292° |
| 2026-04-28 16:01 | 31.94962 | 34.78135 | 518 ft | 112 kts | 296° |
| 2026-04-28 16:01 | 31.95393 | 34.77352 | 435 ft | 115 kts | 308° |
| 2026-04-28 16:01 | 31.95890 | 34.76695 | 374 ft | 101 kts | 310° |
| 2026-04-28 16:02 | 31.96339 | 34.76113 | 360 ft | 95 kts | 308° |
| 2026-04-28 16:02 | 31.96679 | 34.75474 | 352 ft | 90 kts | 291° |
| 2026-04-28 16:02 | 31.96888 | 34.74815 | 335 ft | 80 kts | 275° |
| 2026-04-28 16:02 | 31.96542 | 34.74457 | 317 ft | 73 kts | 189° |
| 2026-04-28 16:03 | 31.96043 | 34.74371 | 308 ft | 70 kts | 189° |
| 2026-04-28 16:03 | 31.95578 | 34.74409 | 313 ft | 70 kts | 145° |
| 2026-04-28 16:03 | 31.95427 | 34.74932 | 304 ft | 71 kts | 76° |
| 2026-04-28 16:03 | 31.95784 | 34.75281 | 273 ft | 70 kts | 23° |
| 2026-04-28 16:04 | 31.96241 | 34.75359 | 125 ft | 64 kts | 358° |
| 2026-04-28 16:04 | 31.96637 | 34.75356 | 65 ft | 47 kts | 1° |
| 2026-04-28 16:04 | 31.96882 | 34.75377 | 70 ft | 21 kts | 19° |
| 2026-04-28 16:04 | 31.96923 | 34.75381 | 67 ft | 0 kts | 358° |